Time;durP1;ratioP1;P1;durP2;ratioP2;P2;SDS_P1;SDS_P2;PMS_P1;PMS_P2;Temp;Humidity;BMP_temperature;BMP_pressure;BME280_temperature;BME280_humidity;BME280_pressure;Samples;Min_cycle;Max_cycle;Signal;HPM_P1;HPM_P2
2022/04/03 00:01:30;;;;;;;;;;;;;;;3.53;86.97;99878.00;4894493;29;19930;-77
2022/04/03 00:03:56;;;;;;;;;;;;;;;3.50;86.88;99878.03;4892471;29;19928;-78
2022/04/03 00:06:22;;;;;;;;;;;;;;;3.53;86.95;99885.84;4895321;29;20276;-77
2022/04/03 00:08:47;;;;;;;;;;;;;;;3.56;86.87;99879.72;4896475;29;19930;-78
2022/04/03 00:11:12;;;;;;;;;;;;;;;3.54;86.75;99876.22;4896401;29;20010;-80
2022/04/03 00:13:38;;;;;;;;;;;;;;;3.55;86.76;99870.13;4896062;29;19920;-80
2022/04/03 00:16:04;;;;;;;;;;;;;;;3.62;86.98;99880.50;4896419;29;20018;-80
2022/04/03 00:18:29;;;;;;;;;;;;;;;4.03;90.92;99875.56;4895362;29;19920;-79
2022/04/03 00:20:54;;;;;;;;;;;;;;;4.02;93.05;99878.22;4896249;29;19926;-79
2022/04/03 00:23:23;;;;;;;;;;;;;;;3.95;93.84;99872.19;4896450;29;19931;-80
2022/04/03 00:25:48;;;;;;;;;;;;;;;3.91;94.19;99876.63;4894648;29;19927;-79
2022/04/03 00:28:14;;;;;;;;;;;;;;;3.88;94.16;99878.38;4896334;29;19919;-80
2022/04/03 00:30:40;;;;;;;;;;;;;;;3.85;94.27;99881.09;4895017;29;20294;-81
2022/04/03 00:33:06;;;;;;;;;;;;;;;3.82;94.22;99872.34;4893695;29;19975;-80
2022/04/03 00:35:32;;;;;;;;;;;;;;;3.82;94.17;99876.75;4892729;29;20390;-80
2022/04/03 00:37:57;;;;;;;;;;;;;;;3.81;94.09;99881.13;4896497;29;19967;-78
2022/04/03 00:40:26;;;;;;;;;;;;;;;3.80;93.86;99879.38;4898770;29;19924;-78
2022/04/03 00:42:51;;;;;;;;;;;;;;;3.78;93.75;99875.03;4898803;29;19959;-77
2022/04/03 00:45:17;;;;;;;;;;;;;;;3.80;93.58;99868.91;4897161;29;19919;-79
2022/04/03 00:47:42;;;;;;;;;;;;;;;3.79;93.40;99876.78;4895038;29;19955;-78
2022/04/03 00:50:08;;;;;;;;;;;;;;;3.80;93.32;99878.53;4897298;29;19920;-81
2022/04/03 03:29:28;;;;;;;;;;;;;;;4.80;100.00;99895.31;4921986;28;20450;-78
2022/04/03 03:31:53;;;;;;;;;;;;;;;4.81;100.00;99899.69;4926081;29;20017;-78
2022/04/03 03:34:19;;;;;;;;;;;;;;;4.82;100.00;99898.78;4925223;29;20426;-79
2022/04/03 03:36:44;;;;;;;;;;;;;;;4.83;100.00;99900.50;4926198;29;19923;-79
2022/04/03 03:39:09;;;;;;;;;;;;;;;4.84;100.00;99904.88;4925077;29;19921;-79
2022/04/03 03:41:34;;;;;;;;;;;;;;;4.84;100.00;99902.25;4923660;29;19977;-78
2022/04/03 03:44:00;;;;;;;;;;;;;;;4.85;100.00;99896.13;4925773;29;19966;-78
2022/04/03 03:46:25;;;;;;;;;;;;;;;4.88;100.00;99905.69;4924885;29;19923;-78
2022/04/03 03:48:50;;;;;;;;;;;;;;;4.88;100.00;99909.19;4946699;29;19974;-78
2022/04/03 03:51:15;;;;;;;;;;;;;;;4.87;100.00;99907.44;4925449;29;19979;-78
2022/04/03 03:53:41;;;;;;;;;;;;;;;4.91;100.00;99908.25;4924764;29;19926;-78
2022/04/03 03:56:06;;;;;;;;;;;;;;;4.89;100.00;99910.91;4923667;29;20286;-79
2022/04/03 03:58:32;;;;;;;;;;;;;;;4.09;100.00;99906.94;4925320;29;20279;-80
2022/04/03 04:00:57;;;;;;;;;;;;;;;3.73;100.00;99909.16;4925187;29;19919;-78
2022/04/03 04:03:22;;;;;;;;;;;;;;;3.58;100.00;99917.25;4925413;29;19939;-79
2022/04/03 04:05:47;;;;;;;;;;;;;;;3.43;100.00;99927.03;4925006;29;20323;-78
2022/04/03 04:08:13;;;;;;;;;;;;;;;3.43;100.00;99926.13;4946719;29;20342;-78
2022/04/03 04:10:38;;;;;;;;;;;;;;;3.28;100.00;99922.81;4924922;29;19915;-78
2022/04/03 04:13:03;;;;;;;;;;;;;;;3.21;100.00;99925.53;4927038;29;20385;-78
2022/04/03 04:15:30;;;;;;;;;;;;;;;3.18;100.00;99918.56;4928793;29;19919;-78
2022/04/03 04:17:55;;;;;;;;;;;;;;;3.19;100.00;99933.41;4928834;29;20042;-78
2022/04/03 04:20:21;;;;;;;;;;;;;;;3.24;100.00;99928.13;4929018;29;20009;-79
2022/04/03 04:22:47;;;;;;;;;;;;;;;3.44;100.00;99927.88;4927392;29;19978;-78
2022/04/03 04:25:14;;;;;;;;;;;;;;;3.38;100.00;99931.44;4927823;29;19978;-78
2022/04/03 04:27:39;;;;;;;;;;;;;;;3.33;100.00;99932.38;4925460;29;19933;-78
2022/04/03 04:30:05;;;;;;;;;;;;;;;3.24;100.00;99941.22;4928860;29;19927;-78
2022/04/03 04:32:32;;;;;;;;;;;;;;;3.14;100.00;99940.41;4927934;29;20067;-78
2022/04/03 04:34:57;;;;;;;;;;;;;;;3.09;100.00;99943.09;4928380;29;19923;-78
2022/04/03 04:37:22;;;;;;;;;;;;;;;3.05;100.00;99946.63;4928627;29;19923;-78
2022/04/03 04:39:47;;;;;;;;;;;;;;;3.01;100.00;99937.03;4927193;29;19919;-78
2022/04/03 04:42:13;;;;;;;;;;;;;;;2.98;100.00;99937.06;4925270;29;19951;-78
2022/04/03 04:44:39;;;;;;;;;;;;;;;2.95;100.00;99942.34;4927947;29;20179;-78
2022/04/03 04:47:05;;;;;;;;;;;;;;;2.94;100.00;99942.38;4927500;29;20325;-79
2022/04/03 04:49:30;;;;;;;;;;;;;;;2.90;100.00;99944.13;4950610;29;19919;-78
2022/04/03 04:51:55;;;;;;;;;;;;;;;2.86;100.00;99945.91;4949702;29;19919;-78
2022/04/03 04:54:21;;;;;;;;;;;;;;;2.83;100.00;99947.69;4926983;29;19919;-78
2022/04/03 04:56:47;;;;;;;;;;;;;;;2.81;100.00;99944.22;4926121;29;20252;-79
2022/04/03 04:59:12;;;;;;;;;;;;;;;2.78;100.00;99944.25;4928005;29;20331;-79
2022/04/03 05:01:37;;;;;;;;;;;;;;;2.75;99.57;99949.53;4925409;29;19923;-80
2022/04/03 05:04:03;;;;;;;;;;;;;;;2.73;99.11;99950.38;4927885;29;20433;-79
2022/04/03 12:54:52;;;;;;;;;;;;;;;3.06;72.14;100042.63;5320127;23;19971;-86
2022/04/03 13:00:18;;;;;;;;;;;;;;;3.20;76.75;100039.00;4928381;29;19925;-84
2022/04/03 13:02:44;;;;;;;;;;;;;;;3.21;78.73;100038.13;4927714;29;19923;-83
2022/04/03 13:05:14;;;;;;;;;;;;;;;3.22;80.39;100039.84;4927708;29;19922;-87
2022/04/03 13:07:39;;;;;;;;;;;;;;;3.24;81.78;100040.72;4951179;29;19926;-84
2022/04/03 13:10:04;;;;;;;;;;;;;;;3.24;82.58;100045.97;4926657;29;19927;-83
2022/04/03 13:12:29;;;;;;;;;;;;;;;3.21;82.98;100046.84;4928731;29;19942;-83
2022/04/03 13:14:55;;;;;;;;;;;;;;;3.19;83.76;100048.63;4927773;29;19926;-83
2022/04/03 13:17:21;;;;;;;;;;;;;;;3.14;84.63;100045.16;4927343;29;20018;-85
2022/04/03 13:19:46;;;;;;;;;;;;;;;3.09;85.52;100036.47;4927568;29;19975;-88
2022/04/03 13:22:12;;;;;;;;;;;;;;;3.08;86.59;100029.53;4927710;29;20338;-83
2022/04/03 13:24:37;;;;;;;;;;;;;;;3.06;87.42;100034.78;4926511;29;19929;-87
2022/04/03 13:27:03;;;;;;;;;;;;;;;3.03;88.14;100033.91;4927519;29;19919;-83
2022/04/03 13:29:28;;;;;;;;;;;;;;;3.01;89.34;100018.19;4926484;29;19937;-84
2022/04/03 13:31:54;;;;;;;;;;;;;;;3.03;90.49;100018.19;4926319;29;19918;-84
2022/04/03 13:34:19;;;;;;;;;;;;;;;3.01;92.18;100020.81;4926141;29;20010;-83
2022/04/03 13:36:44;;;;;;;;;;;;;;;3.06;93.96;100021.69;4949115;29;20335;-87
2022/04/03 13:39:11;;;;;;;;;;;;;;;3.27;95.76;100019.72;4926307;29;19919;-84
2022/04/03 13:41:38;;;;;;;;;;;;;;;3.39;98.13;100018.75;4926896;29;19977;-83
2022/04/03 13:44:04;;;;;;;;;;;;;;;3.52;100.00;100011.63;4926527;29;20039;-82
2022/04/03 13:46:29;;;;;;;;;;;;;;;3.60;100.00;100012.41;4927303;29;20470;-83
2022/04/03 13:48:54;;;;;;;;;;;;;;;3.68;100.00;100015.81;4926494;29;19919;-86
2022/04/03 13:51:20;;;;;;;;;;;;;;;3.70;100.00;100003.59;4926976;29;19926;-83
2022/04/03 13:53:46;;;;;;;;;;;;;;;3.74;100.00;99994.78;4924948;29;19930;-86
2022/04/03 13:56:11;;;;;;;;;;;;;;;3.81;100.00;100009.56;4926867;29;19927;-86
2022/04/03 13:58:37;;;;;;;;;;;;;;;3.87;100.00;100013.00;4927239;29;20126;-84
2022/04/03 14:01:04;;;;;;;;;;;;;;;3.88;100.00;100001.59;4949899;29;19962;-84
2022/04/03 14:03:30;;;;;;;;;;;;;;;3.91;100.00;99996.31;4925622;29;19920;-84
2022/04/03 14:05:56;;;;;;;;;;;;;;;3.93;100.00;99992.81;4926915;29;19989;-83
2022/04/03 14:08:21;;;;;;;;;;;;;;;3.95;100.00;99987.56;4925033;29;19923;-84
2022/04/03 14:10:50;;;;;;;;;;;;;;;4.00;100.00;99996.22;4948251;29;20059;-84
2022/04/03 14:13:16;;;;;;;;;;;;;;;4.02;100.00;99991.84;4925072;29;19919;-83
2022/04/03 14:15:41;;;;;;;;;;;;;;;4.04;100.00;99991.78;4925497;29;20025;-84
2022/04/03 14:18:07;;;;;;;;;;;;;;;4.05;100.00;99991.78;4926637;29;19963;-84
2022/04/03 14:20:32;;;;;;;;;;;;;;;4.07;100.00;99992.66;4926470;29;19926;-87
2022/04/03 14:22:57;;;;;;;;;;;;;;;4.08;100.00;99977.78;4947924;29;19923;-84
2022/04/03 14:25:23;;;;;;;;;;;;;;;4.11;100.00;99982.97;4925147;29;19919;-84
2022/04/03 14:27:48;;;;;;;;;;;;;;;3.66;100.00;99980.91;4947915;29;20367;-80
2022/04/03 14:30:13;;;;;;;;;;;;;;;3.13;100.00;99991.06;4926427;29;19958;-82
2022/04/03 14:32:50;;;;;;;;;;;;;;;2.94;100.00;99979.88;4925940;29;19926;-83
2022/04/03 14:35:17;;;;;;;;;;;;;;;2.87;100.00;99986.03;4926316;29;19958;-85
2022/04/03 14:37:43;;;;;;;;;;;;;;;2.75;98.36;99986.16;4925869;29;19926;-85
2022/04/03 14:40:09;;;;;;;;;;;;;;;2.68;96.11;99988.81;4924599;29;19919;-85
2022/04/03 14:42:35;;;;;;;;;;;;;;;2.63;94.25;99993.22;4924626;29;20401;-86
2022/04/03 14:45:00;;;;;;;;;;;;;;;2.55;92.72;99989.75;4926368;29;19923;-83
2022/04/03 14:47:25;;;;;;;;;;;;;;;2.52;91.72;99989.78;4926402;29;20018;-84
2022/04/03 14:49:50;;;;;;;;;;;;;;;2.50;90.58;99994.16;4926024;29;20465;-85
2022/04/03 14:52:16;;;;;;;;;;;;;;;2.45;89.70;99990.72;4925340;29;19919;-86
2022/04/03 14:54:41;;;;;;;;;;;;;;;2.42;88.75;99991.59;4923889;29;19973;-85
2022/04/03 14:57:09;;;;;;;;;;;;;;;2.32;88.06;99987.31;4932072;29;19926;-85
2022/04/03 14:59:35;;;;;;;;;;;;;;;2.29;87.48;99979.47;4926870;29;20325;-87
2022/04/03 15:02:00;;;;;;;;;;;;;;;2.26;86.94;99985.59;4924711;29;19923;-85
2022/04/03 15:04:26;;;;;;;;;;;;;;;2.29;86.19;99985.56;4926165;29;20030;-82
2022/04/03 15:06:51;;;;;;;;;;;;;;;2.24;85.48;99984.72;4925755;29;19937;-85
2022/04/03 15:09:32;;;;;;;;;;;;;;;2.20;85.03;99996.06;4946647;29;20267;-86
2022/04/03 15:12:07;;;;;;;;;;;;;;;2.19;84.61;99996.97;4926334;29;19927;-86
2022/04/03 15:14:33;;;;;;;;;;;;;;;2.16;83.78;99995.22;4924128;29;19923;-84
2022/04/03 15:17:00;;;;;;;;;;;;;;;2.11;83.41;100001.38;4923576;29;19930;-87
2022/04/03 15:19:25;;;;;;;;;;;;;;;2.06;83.27;99995.28;4925348;29;20393;-87
2022/04/03 15:21:54;;;;;;;;;;;;;;;2.03;83.29;100001.41;4923985;29;19927;-86
2022/04/03 15:24:19;;;;;;;;;;;;;;;1.98;83.34;100001.44;4923596;29;19930;-84
2022/04/03 15:26:47;;;;;;;;;;;;;;;1.95;83.68;99993.59;4924908;29;19926;-85
2022/04/03 15:29:13;;;;;;;;;;;;;;;1.97;83.63;99994.44;4925631;29;19922;-84
2022/04/03 15:31:38;;;;;;;;;;;;;;;1.95;83.64;99992.75;4924777;29;20014;-86
2022/04/03 15:34:03;;;;;;;;;;;;;;;1.89;83.41;99995.38;4926736;29;20435;-84
2022/04/03 15:37:01;;;;;;;;;;;;;;;1.94;83.50;99996.22;4924915;29;19930;-86
2022/04/03 15:39:26;;;;;;;;;;;;;;;1.93;83.21;99987.53;4911454;29;19927;-84
2022/04/03 15:41:54;;;;;;;;;;;;;;;1.92;83.14;99991.00;4925548;29;19919;-82
2022/04/03 15:44:19;;;;;;;;;;;;;;;1.90;83.09;99990.13;4925307;29;19923;-81
2022/04/03 15:46:45;;;;;;;;;;;;;;;1.93;82.75;99992.75;4924824;29;20405;-82
2022/04/03 15:49:10;;;;;;;;;;;;;;;1.93;82.53;99990.13;4923609;29;20627;-83
2022/04/03 15:51:35;;;;;;;;;;;;;;;1.92;82.09;99987.53;4928122;29;19927;-82
2022/04/03 15:54:01;;;;;;;;;;;;;;;1.86;81.92;99984.94;4923791;29;19927;-83
2022/04/03 15:56:26;;;;;;;;;;;;;;;1.86;81.80;99984.94;4926301;29;20362;-83
2022/04/03 15:58:52;;;;;;;;;;;;;;;1.80;81.76;99985.81;4924667;29;19923;-82
2022/04/03 16:01:18;;;;;;;;;;;;;;;1.83;81.67;99992.78;4925117;29;19923;-82
2022/04/03 16:03:44;;;;;;;;;;;;;;;1.80;81.54;99993.66;4924434;29;20433;-81
2022/04/03 16:06:09;;;;;;;;;;;;;;;1.79;81.43;99991.94;4924480;29;19922;-81
2022/04/03 16:08:34;;;;;;;;;;;;;;;1.80;81.68;99991.03;4932997;29;20703;-83
2022/04/03 16:11:00;;;;;;;;;;;;;;;1.79;81.57;99989.31;4928795;29;19923;-81
2022/04/03 16:13:43;;;;;;;;;;;;;;;1.75;81.47;99984.97;4928541;29;19919;-84
2022/04/03 16:16:08;;;;;;;;;;;;;;;1.73;81.51;99986.72;4929117;29;19981;-82
2022/04/03 16:18:35;;;;;;;;;;;;;;;1.72;81.36;99992.81;4928711;29;20378;-84
2022/04/03 16:21:01;;;;;;;;;;;;;;;1.69;81.49;99991.09;4951006;29;19975;-84
2022/04/03 16:23:26;;;;;;;;;;;;;;;1.70;81.45;99989.34;4948951;29;19920;-84
2022/04/03 16:25:54;;;;;;;;;;;;;;;1.71;81.38;99991.06;4928621;29;20268;-85
2022/04/03 16:28:22;;;;;;;;;;;;;;;1.72;81.42;99990.19;4927115;29;20331;-82
2022/04/03 16:30:48;;;;;;;;;;;;;;;1.69;81.30;99990.22;4928008;29;19919;-81
2022/04/03 16:33:14;;;;;;;;;;;;;;;1.73;81.15;99992.81;4928101;29;19919;-81
2022/04/03 16:35:39;;;;;;;;;;;;;;;1.69;81.13;99996.31;4926085;29;19925;-84
2022/04/03 16:38:05;;;;;;;;;;;;;;;1.71;81.09;99998.91;4928548;29;20289;-84
2022/04/03 16:40:30;;;;;;;;;;;;;;;1.71;80.85;99993.69;4926299;29;19923;-83
2022/04/03 16:42:56;;;;;;;;;;;;;;;1.71;80.80;99996.28;4931328;29;19962;-82
2022/04/03 16:45:30;;;;;;;;;;;;;;;1.68;80.56;99986.72;4931768;29;19927;-85
2022/04/03 16:47:56;;;;;;;;;;;;;;;1.71;80.67;99991.06;4929416;29;20326;-83
2022/04/03 16:50:21;;;;;;;;;;;;;;;1.68;80.56;99991.09;4925890;29;19931;-83
2022/04/03 16:52:47;;;;;;;;;;;;;;;1.65;80.46;99980.66;4928390;29;20646;-81
2022/04/03 16:55:58;;;;;;;;;;;;;;;1.60;80.71;99986.75;4924199;29;19937;-82
2022/04/03 16:58:04;;;;;;;;;;;;;;;1.59;80.82;99984.16;4929093;29;20021;-82
2022/04/03 17:00:29;;;;;;;;;;;;;;;1.66;80.90;99985.00;4927827;29;20061;-85
2022/04/03 17:02:55;;;;;;;;;;;;;;;1.63;80.82;99984.13;4925878;29;19977;-83
2022/04/03 17:05:20;;;;;;;;;;;;;;;1.61;80.87;99985.91;4925749;29;19931;-83
2022/04/03 17:07:45;;;;;;;;;;;;;;;1.63;80.82;99989.34;4925338;29;19923;-82
2022/04/03 17:10:11;;;;;;;;;;;;;;;1.64;80.81;99995.44;4927397;29;19927;-82
2022/04/03 17:12:40;;;;;;;;;;;;;;;1.62;80.78;99997.19;4946010;29;19923;-83
2022/04/03 17:15:15;;;;;;;;;;;;;;;1.56;80.71;100003.28;4947682;29;19923;-82
2022/04/03 17:17:40;;;;;;;;;;;;;;;1.57;80.83;100001.56;4926209;29;19946;-83
2022/04/03 17:20:07;;;;;;;;;;;;;;;1.56;80.76;100005.91;4929490;29;20375;-83
2022/04/03 17:22:33;;;;;;;;;;;;;;;1.57;80.70;100012.88;4926611;29;19982;-82
2022/04/03 17:24:58;;;;;;;;;;;;;;;1.59;80.56;100011.13;4946487;29;19977;-82
2022/04/03 17:27:23;;;;;;;;;;;;;;;1.60;80.36;100017.25;4925114;29;19931;-84
2022/04/03 17:29:48;;;;;;;;;;;;;;;1.55;80.43;100012.03;4926729;29;19929;-81
2022/04/03 17:32:17;;;;;;;;;;;;;;;1.51;80.31;100015.50;4924759;29;19927;-84
2022/04/03 17:34:42;;;;;;;;;;;;;;;1.58;80.38;100016.34;4927186;29;19934;-87
2022/04/03 17:37:08;;;;;;;;;;;;;;;1.59;80.05;100021.56;4925889;29;20332;-82
2022/04/03 17:39:34;;;;;;;;;;;;;;;1.57;79.88;100023.34;4923888;29;19926;-83
2022/04/03 17:42:00;;;;;;;;;;;;;;;1.55;80.03;100025.09;4923919;29;20010;-81
2022/04/03 17:44:26;;;;;;;;;;;;;;;1.57;79.83;100023.34;4925997;29;20408;-81
2022/04/03 17:46:52;;;;;;;;;;;;;;;1.56;79.66;100037.25;4927544;29;19923;-81
2022/04/03 17:49:21;;;;;;;;;;;;;;;1.54;79.64;100031.16;4927944;29;19927;-81
2022/04/03 17:51:47;;;;;;;;;;;;;;;1.53;79.54;100037.28;4927357;29;20026;-83
2022/04/03 17:54:12;;;;;;;;;;;;;;;1.57;79.49;100035.53;4927337;29;20022;-83
2022/04/03 17:56:37;;;;;;;;;;;;;;;1.57;79.40;100031.16;4927033;29;19927;-83
2022/04/03 17:59:02;;;;;;;;;;;;;;;1.57;79.27;100035.53;4929314;29;19930;-85
2022/04/03 18:01:28;;;;;;;;;;;;;;;1.49;79.11;100040.75;4927514;29;19930;-82
2022/04/03 18:03:53;;;;;;;;;;;;;;;1.54;79.17;100041.63;4925938;29;19923;-83
2022/04/03 18:06:18;;;;;;;;;;;;;;;1.57;78.99;100046.84;4926488;29;20434;-84
2022/04/03 18:08:44;;;;;;;;;;;;;;;1.55;79.06;100048.59;4925307;29;19923;-82
2022/04/03 18:11:14;;;;;;;;;;;;;;;1.53;78.74;100054.69;4926575;29;19925;-84
2022/04/03 18:13:40;;;;;;;;;;;;;;;1.54;78.59;100057.28;4926383;29;20022;-83
2022/04/03 18:16:07;;;;;;;;;;;;;;;1.49;78.63;100050.34;4926497;29;20009;-81
2022/04/03 18:18:33;;;;;;;;;;;;;;;1.53;78.69;100049.47;4931442;29;20445;-81
2022/04/03 18:20:59;;;;;;;;;;;;;;;1.48;78.58;100052.06;4926751;29;19966;-82
2022/04/03 18:23:28;;;;;;;;;;;;;;;1.45;78.61;100055.56;4925468;29;19927;-84
2022/04/03 18:25:53;;;;;;;;;;;;;;;1.46;78.66;100053.81;4927128;29;20287;-82
2022/04/03 18:28:24;;;;;;;;;;;;;;;1.51;78.59;100057.28;4926496;29;19934;-81
2022/04/03 18:30:50;;;;;;;;;;;;;;;1.50;78.56;100066.03;4928761;29;20453;-85
2022/04/03 18:33:15;;;;;;;;;;;;;;;1.51;78.60;100062.50;4926985;29;20006;-82
2022/04/03 18:35:40;;;;;;;;;;;;;;;1.47;78.39;100071.25;4926176;29;19970;-81
2022/04/03 18:38:07;;;;;;;;;;;;;;;1.48;78.48;100078.19;4929579;29;19923;-84
2022/04/03 18:40:55;;;;;;;;;;;;;;;1.50;78.37;100079.09;4925223;29;19922;-84
2022/04/03 18:43:20;;;;;;;;;;;;;;;1.52;78.20;100069.50;4925992;29;19933;-81
2022/04/03 18:45:45;;;;;;;;;;;;;;;1.54;78.09;100077.31;4927409;29;19923;-82
2022/04/03 18:48:11;;;;;;;;;;;;;;;1.48;78.02;100077.34;4924389;29;19927;-82
2022/04/03 18:50:36;;;;;;;;;;;;;;;1.46;78.00;100082.56;4924376;29;19920;-83
2022/04/03 18:53:02;;;;;;;;;;;;;;;1.52;77.88;100085.16;4926991;29;19977;-82
2022/04/03 18:55:28;;;;;;;;;;;;;;;1.48;77.82;100072.97;4926872;29;19926;-82
2022/04/03 18:57:54;;;;;;;;;;;;;;;1.48;77.84;100077.34;4927343;29;19926;-81
2022/04/03 19:00:21;;;;;;;;;;;;;;;1.47;77.80;100070.34;4927798;29;19927;-82
2022/04/03 19:02:47;;;;;;;;;;;;;;;1.47;77.78;100068.63;4927201;29;20375;-81
2022/04/03 19:05:12;;;;;;;;;;;;;;;1.47;77.83;100072.97;4927287;29;19934;-82
2022/04/03 19:07:37;;;;;;;;;;;;;;;1.49;77.89;100064.28;4926311;29;19920;-82
2022/04/03 19:10:02;;;;;;;;;;;;;;;1.47;77.70;100076.47;4924443;29;19927;-85
2022/04/03 19:12:28;;;;;;;;;;;;;;;1.45;77.83;100072.97;4925690;29;19919;-81
2022/04/03 19:14:54;;;;;;;;;;;;;;;1.50;77.75;100076.47;4924687;29;19979;-84
2022/04/03 19:17:20;;;;;;;;;;;;;;;1.47;77.76;100070.34;4925334;29;19926;-85
2022/04/03 19:19:46;;;;;;;;;;;;;;;1.48;77.44;100072.09;4947691;28;19923;-81
2022/04/03 19:22:12;;;;;;;;;;;;;;;1.47;77.33;100063.41;4924477;29;19933;-81
2022/04/03 19:24:38;;;;;;;;;;;;;;;1.48;77.37;100072.97;4924370;29;19919;-81
2022/04/03 19:27:03;;;;;;;;;;;;;;;1.49;77.19;100066.88;4925527;29;19925;-82
2022/04/03 19:29:28;;;;;;;;;;;;;;;1.47;77.15;100075.56;4924056;29;19954;-83
2022/04/03 19:31:54;;;;;;;;;;;;;;;1.47;77.18;100081.69;4926378;29;19926;-81
2022/04/03 19:34:19;;;;;;;;;;;;;;;1.48;77.05;100083.41;4926349;29;19919;-86
2022/04/03 19:36:46;;;;;;;;;;;;;;;1.52;77.04;100079.94;4925293;29;19929;-82
2022/04/03 19:39:11;;;;;;;;;;;;;;;1.48;77.00;100083.41;4923754;29;20003;-83
2022/04/03 19:41:36;;;;;;;;;;;;;;;1.48;76.89;100080.81;4924321;29;19935;-82
2022/04/03 19:44:02;;;;;;;;;;;;;;;1.46;76.85;100085.16;4925641;29;19975;-82
2022/04/03 19:46:27;;;;;;;;;;;;;;;1.48;76.75;100086.03;4925251;29;20374;-84
2022/04/03 19:48:53;;;;;;;;;;;;;;;1.45;76.93;100091.25;4927145;29;19927;-83
2022/04/03 19:51:18;;;;;;;;;;;;;;;1.46;76.83;100090.38;4926950;29;19927;-81
2022/04/03 19:53:43;;;;;;;;;;;;;;;1.47;77.02;100089.53;4925933;29;19974;-81
2022/04/03 19:56:10;;;;;;;;;;;;;;;1.52;76.79;100093.00;4928568;29;19929;-81
2022/04/03 19:58:36;;;;;;;;;;;;;;;1.52;76.78;100093.00;4926058;29;19923;-84
2022/04/03 20:01:01;;;;;;;;;;;;;;;1.49;76.55;100087.78;4923505;29;20383;-84
2022/04/03 20:03:26;;;;;;;;;;;;;;;1.51;76.56;100098.22;4925635;29;19969;-85
2022/04/03 20:05:52;;;;;;;;;;;;;;;1.48;76.62;100099.09;4924760;29;19919;-81
2022/04/03 20:08:18;;;;;;;;;;;;;;;1.49;76.45;100094.75;4923753;29;20005;-82
2022/04/03 20:10:44;;;;;;;;;;;;;;;1.49;76.50;100099.97;4924562;29;19919;-86
2022/04/03 20:13:09;;;;;;;;;;;;;;;1.49;76.42;100105.19;4925013;29;20396;-82
2022/04/03 20:15:36;;;;;;;;;;;;;;;1.49;76.46;100105.19;4925435;29;19923;-82
2022/04/03 20:18:01;;;;;;;;;;;;;;;1.53;76.25;100112.13;4927158;29;19974;-84
2022/04/03 20:20:26;;;;;;;;;;;;;;;1.54;76.08;100114.75;4926498;29;19931;-82
2022/04/03 20:22:51;;;;;;;;;;;;;;;1.50;75.95;100105.19;4927595;29;20262;-84
2022/04/03 20:25:17;;;;;;;;;;;;;;;1.51;75.94;100106.91;4926301;29;19971;-81
2022/04/03 20:27:42;;;;;;;;;;;;;;;1.53;75.84;100107.81;4926189;29;20393;-81
2022/04/03 20:30:08;;;;;;;;;;;;;;;1.56;75.85;100115.63;4928530;29;19923;-82
2022/04/03 20:32:33;;;;;;;;;;;;;;;1.59;75.87;100120.84;4926485;29;20021;-81
2022/04/03 20:34:58;;;;;;;;;;;;;;;1.54;75.59;100125.19;4926619;29;19926;-85
2022/04/03 20:37:24;;;;;;;;;;;;;;;1.56;75.76;100123.44;4928345;29;19990;-81
2022/04/03 20:39:49;;;;;;;;;;;;;;;1.61;75.63;100126.94;4927572;29;19985;-82
2022/04/03 20:42:14;;;;;;;;;;;;;;;1.57;75.38;100125.19;4947737;28;19943;-82
2022/04/03 20:44:39;;;;;;;;;;;;;;;1.58;75.45;100126.06;4923257;29;19930;-82
2022/04/03 20:47:05;;;;;;;;;;;;;;;1.56;75.47;100123.44;4927980;29;19957;-82
2022/04/03 20:49:30;;;;;;;;;;;;;;;1.58;75.20;100128.69;4927226;29;19923;-85
2022/04/03 20:51:56;;;;;;;;;;;;;;;1.58;75.16;100128.69;4927391;29;19918;-81
2022/04/03 20:54:21;;;;;;;;;;;;;;;1.56;75.02;100126.06;4925376;29;19923;-82
2022/04/03 20:56:47;;;;;;;;;;;;;;;1.58;75.00;100128.69;4927069;29;19927;-82
2022/04/03 20:59:12;;;;;;;;;;;;;;;1.60;74.99;100124.34;4926984;29;19947;-83
2022/04/03 21:01:37;;;;;;;;;;;;;;;1.59;74.91;100127.81;4927578;29;20040;-83
2022/04/03 21:04:02;;;;;;;;;;;;;;;1.59;74.69;100127.81;4928822;29;19919;-82
2022/04/03 21:06:28;;;;;;;;;;;;;;;1.61;74.64;100129.56;4949495;29;20010;-83
2022/04/03 21:08:54;;;;;;;;;;;;;;;1.59;74.59;100126.06;4926641;29;19923;-83
2022/04/03 21:11:19;;;;;;;;;;;;;;;1.61;74.46;100132.19;4927689;29;20418;-81
2022/04/03 21:13:44;;;;;;;;;;;;;;;1.60;74.56;100122.59;4927911;29;19951;-82
2022/04/03 21:16:10;;;;;;;;;;;;;;;1.62;74.33;100127.81;4927834;29;19930;-81
2022/04/03 21:18:35;;;;;;;;;;;;;;;1.62;74.39;100126.06;4928974;29;19930;-82
2022/04/03 21:21:01;;;;;;;;;;;;;;;1.62;74.19;100128.69;4927774;29;19929;-82
2022/04/03 21:23:27;;;;;;;;;;;;;;;1.63;74.01;100130.44;4926997;29;19967;-83
2022/04/03 21:25:53;;;;;;;;;;;;;;;1.66;74.05;100126.06;4927310;29;19919;-84
2022/04/03 21:28:18;;;;;;;;;;;;;;;1.61;74.01;100116.50;4925913;29;19936;-85
2022/04/03 21:30:43;;;;;;;;;;;;;;;1.66;73.97;100123.44;4927374;29;19926;-83
2022/04/03 21:33:08;;;;;;;;;;;;;;;1.67;73.87;100115.59;4926836;29;20346;-81
2022/04/03 21:35:34;;;;;;;;;;;;;;;1.65;73.71;100116.50;4927404;29;19923;-81
2022/04/03 21:38:00;;;;;;;;;;;;;;;1.69;73.76;100115.59;4926892;29;19958;-83
2022/04/03 21:40:25;;;;;;;;;;;;;;;1.66;73.74;100116.50;4926027;29;19923;-82
2022/04/03 21:42:51;;;;;;;;;;;;;;;1.65;73.75;100116.50;4926300;29;19931;-81
2022/04/03 21:45:16;;;;;;;;;;;;;;;1.69;73.56;100113.00;4926951;29;19919;-82
2022/04/03 21:47:42;;;;;;;;;;;;;;;1.68;73.40;100113.88;4926567;29;20339;-83
2022/04/03 21:50:07;;;;;;;;;;;;;;;1.67;73.48;100110.38;4925920;29;19926;-81
2022/04/03 21:52:32;;;;;;;;;;;;;;;1.67;73.31;100113.00;4927014;29;20830;-81
2022/04/03 21:54:58;;;;;;;;;;;;;;;1.68;73.31;100111.28;4924535;29;20430;-86
2022/04/03 21:57:23;;;;;;;;;;;;;;;1.68;73.21;100106.06;4926723;29;19924;-81
2022/04/03 21:59:48;;;;;;;;;;;;;;;1.70;73.21;100106.91;4927148;29;19964;-82
2022/04/03 22:02:13;;;;;;;;;;;;;;;1.71;73.03;100106.91;4927259;29;20026;-81
2022/04/03 22:04:38;;;;;;;;;;;;;;;1.69;72.99;100099.94;4932637;29;19926;-84
2022/04/03 22:07:04;;;;;;;;;;;;;;;1.72;73.17;100103.41;4925552;29;19954;-83
2022/04/03 22:09:29;;;;;;;;;;;;;;;1.70;72.96;100099.94;4925629;29;19974;-81
2022/04/03 22:11:54;;;;;;;;;;;;;;;1.74;73.05;100098.19;4926635;29;20446;-85
2022/04/03 22:14:21;;;;;;;;;;;;;;;1.73;72.92;100105.16;4949394;29;20382;-86
2022/04/03 22:16:46;;;;;;;;;;;;;;;1.70;72.73;100099.94;4926612;29;20005;-83
2022/04/03 22:19:12;;;;;;;;;;;;;;;1.72;72.83;100102.53;4926305;29;20010;-84
2022/04/03 22:21:37;;;;;;;;;;;;;;;1.72;72.73;100107.75;4926308;29;19970;-84
2022/04/03 22:24:02;;;;;;;;;;;;;;;1.74;72.76;100109.53;4946621;28;19919;-82
2022/04/03 22:26:27;;;;;;;;;;;;;;;1.74;72.59;100106.91;4926435;29;20428;-82
2022/04/03 22:28:53;;;;;;;;;;;;;;;1.71;72.45;100114.75;4926221;29;19923;-81
2022/04/03 22:31:19;;;;;;;;;;;;;;;1.73;72.30;100119.97;4924330;29;19919;-85
2022/04/03 22:33:44;;;;;;;;;;;;;;;1.74;72.20;100121.69;4925727;29;19923;-87
2022/04/03 22:36:10;;;;;;;;;;;;;;;1.72;72.21;100118.22;4926348;29;20017;-83
2022/04/03 22:38:35;;;;;;;;;;;;;;;1.74;72.13;100116.47;4925328;29;19919;-86
2022/04/03 22:41:01;;;;;;;;;;;;;;;1.74;72.12;100117.34;4925946;29;19919;-82
2022/04/03 22:43:27;;;;;;;;;;;;;;;1.77;72.25;100124.31;4948144;29;19969;-83
2022/04/03 22:45:52;;;;;;;;;;;;;;;1.74;72.21;100126.91;4926179;29;19925;-82
2022/04/03 22:48:18;;;;;;;;;;;;;;;1.79;72.22;100135.66;4924946;29;19918;-83
2022/04/03 22:50:43;;;;;;;;;;;;;;;1.78;72.20;100124.31;4925865;29;19919;-83
2022/04/03 22:53:09;;;;;;;;;;;;;;;1.77;72.54;100119.06;4924489;29;20009;-82
2022/04/03 22:55:35;;;;;;;;;;;;;;;1.79;72.64;100117.34;4924923;29;19923;-86
2022/04/03 22:58:00;;;;;;;;;;;;;;;1.77;72.78;100121.69;4926687;29;20006;-82
2022/04/03 23:00:25;;;;;;;;;;;;;;;1.77;73.06;100122.56;4924370;29;19918;-86
2022/04/03 23:02:51;;;;;;;;;;;;;;;1.79;73.01;100112.13;4925949;29;19946;-82
2022/04/03 23:05:16;;;;;;;;;;;;;;;1.79;73.03;100106.91;4926180;29;19918;-82
2022/04/03 23:07:42;;;;;;;;;;;;;;;1.78;72.94;100103.41;4925451;29;19930;-82
2022/04/03 23:10:10;;;;;;;;;;;;;;;1.81;73.04;100102.53;4946458;29;20391;-86
2022/04/03 23:12:36;;;;;;;;;;;;;;;1.77;72.73;100101.69;4925223;29;19919;-81